sensor_id;sensor_type;location;lat;lon;timestamp;temperature;humidity
14122;DHT22;7139;48.114;11.442;2023-09-19T00:00:21;16.60;99.90
14122;DHT22;7139;48.114;11.442;2023-09-19T00:02:54;16.60;99.90
14122;DHT22;7139;48.114;11.442;2023-09-19T00:05:24;16.70;99.90
14122;DHT22;7139;48.114;11.442;2023-09-19T00:07:56;16.70;99.90
14122;DHT22;7139;48.114;11.442;2023-09-19T00:10:25;16.70;99.90
14122;DHT22;7139;48.114;11.442;2023-09-19T00:12:52;16.70;99.90
14122;DHT22;7139;48.114;11.442;2023-09-19T00:15:21;16.70;99.90
14122;DHT22;7139;48.114;11.442;2023-09-19T00:17:48;16.70;99.90
14122;DHT22;7139;48.114;11.442;2023-09-19T00:20:18;16.70;99.90
14122;DHT22;7139;48.114;11.442;2023-09-19T00:22:47;16.70;99.90
14122;DHT22;7139;48.114;11.442;2023-09-19T00:25:16;16.70;99.90
14122;DHT22;7139;48.114;11.442;2023-09-19T05:32:08;16.70;99.90
14122;DHT22;7139;48.114;11.442;2023-09-19T05:38:09;16.70;99.90
14122;DHT22;7139;48.114;11.442;2023-09-19T05:44:05;16.70;99.90
14122;DHT22;7139;48.114;11.442;2023-09-19T05:46:33;16.70;99.90
14122;DHT22;7139;48.114;11.442;2023-09-19T05:49:01;16.60;99.90
14122;DHT22;7139;48.114;11.442;2023-09-19T05:51:29;16.70;99.90
14122;DHT22;7139;48.114;11.442;2023-09-19T05:53:56;16.70;99.90
14122;DHT22;7139;48.114;11.442;2023-09-19T05:56:23;16.70;99.90
14122;DHT22;7139;48.114;11.442;2023-09-19T05:58:50;16.70;99.90
14122;DHT22;7139;48.114;11.442;2023-09-19T06:01:18;16.80;99.90
14122;DHT22;7139;48.114;11.442;2023-09-19T06:03:45;16.80;99.90
14122;DHT22;7139;48.114;11.442;2023-09-19T06:06:13;16.80;99.90
14122;DHT22;7139;48.114;11.442;2023-09-19T06:08:40;16.80;99.90
14122;DHT22;7139;48.114;11.442;2023-09-19T06:11:09;16.80;99.90
14122;DHT22;7139;48.114;11.442;2023-09-19T06:13:36;16.90;99.90
14122;DHT22;7139;48.114;11.442;2023-09-19T06:16:04;16.90;99.90
14122;DHT22;7139;48.114;11.442;2023-09-19T06:18:31;17.00;99.90
14122;DHT22;7139;48.114;11.442;2023-09-19T06:20:59;16.90;99.90
14122;DHT22;7139;48.114;11.442;2023-09-19T06:23:27;17.00;99.90
14122;DHT22;7139;48.114;11.442;2023-09-19T06:25:54;17.00;99.90
14122;DHT22;7139;48.114;11.442;2023-09-19T06:28:21;17.00;99.90
14122;DHT22;7139;48.114;11.442;2023-09-19T06:30:50;17.00;99.90
14122;DHT22;7139;48.114;11.442;2023-09-19T06:33:16;17.10;99.90
14122;DHT22;7139;48.114;11.442;2023-09-19T06:35:45;17.10;99.90
14122;DHT22;7139;48.114;11.442;2023-09-19T06:38:13;17.20;99.90
14122;DHT22;7139;48.114;11.442;2023-09-19T06:40:42;17.20;99.90
14122;DHT22;7139;48.114;11.442;2023-09-19T06:43:10;17.20;99.90
14122;DHT22;7139;48.114;11.442;2023-09-19T06:45:37;17.30;99.90
14122;DHT22;7139;48.114;11.442;2023-09-19T06:48:08;17.30;99.90
14122;DHT22;7139;48.114;11.442;2023-09-19T06:50:35;17.30;99.90
14122;DHT22;7139;48.114;11.442;2023-09-19T06:53:04;17.40;99.90
14122;DHT22;7139;48.114;11.442;2023-09-19T06:55:31;17.40;99.90
14122;DHT22;7139;48.114;11.442;2023-09-19T06:57:59;17.40;99.90
14122;DHT22;7139;48.114;11.442;2023-09-19T07:00:25;17.50;99.90
14122;DHT22;7139;48.114;11.442;2023-09-19T07:02:57;17.50;99.90
14122;DHT22;7139;48.114;11.442;2023-09-19T07:05:26;17.50;99.90
14122;DHT22;7139;48.114;11.442;2023-09-19T07:07:54;17.50;99.90
14122;DHT22;7139;48.114;11.442;2023-09-19T07:10:21;17.50;99.90
14122;DHT22;7139;48.114;11.442;2023-09-19T07:12:54;17.50;99.90
14122;DHT22;7139;48.114;11.442;2023-09-19T07:15:22;17.50;99.90
14122;DHT22;7139;48.114;11.442;2023-09-19T07:17:50;17.40;99.90
14122;DHT22;7139;48.114;11.442;2023-09-19T07:20:17;17.50;99.90
14122;DHT22;7139;48.114;11.442;2023-09-19T07:22:44;17.50;99.90
14122;DHT22;7139;48.114;11.442;2023-09-19T07:25:10;17.50;99.90
14122;DHT22;7139;48.114;11.442;2023-09-19T07:27:39;17.50;99.90
14122;DHT22;7139;48.114;11.442;2023-09-19T07:30:07;17.60;99.90
14122;DHT22;7139;48.114;11.442;2023-09-19T07:32:35;17.60;99.90
14122;DHT22;7139;48.114;11.442;2023-09-19T07:35:03;17.60;99.90
14122;DHT22;7139;48.114;11.442;2023-09-19T07:37:31;17.70;99.90
14122;DHT22;7139;48.114;11.442;2023-09-19T07:40:02;17.70;99.90
14122;DHT22;7139;48.114;11.442;2023-09-19T07:42:35;17.80;99.90
14122;DHT22;7139;48.114;11.442;2023-09-19T07:45:02;17.80;99.90
14122;DHT22;7139;48.114;11.442;2023-09-19T07:47:29;17.80;99.90
14122;DHT22;7139;48.114;11.442;2023-09-19T07:49:59;17.80;99.90
14122;DHT22;7139;48.114;11.442;2023-09-19T07:52:27;17.80;99.90
14122;DHT22;7139;48.114;11.442;2023-09-19T07:54:54;17.90;99.90
14122;DHT22;7139;48.114;11.442;2023-09-19T07:57:22;17.90;99.90
14122;DHT22;7139;48.114;11.442;2023-09-19T07:59:50;18.00;99.90
14122;DHT22;7139;48.114;11.442;2023-09-19T08:02:17;18.10;99.90
14122;DHT22;7139;48.114;11.442;2023-09-19T08:04:44;18.20;99.90
14122;DHT22;7139;48.114;11.442;2023-09-19T08:07:13;18.20;99.90
14122;DHT22;7139;48.114;11.442;2023-09-19T08:09:39;18.30;99.90
14122;DHT22;7139;48.114;11.442;2023-09-19T08:12:07;18.40;99.90
14122;DHT22;7139;48.114;11.442;2023-09-19T08:17:57;18.50;99.90
14122;DHT22;7139;48.114;11.442;2023-09-19T08:20:24;18.50;99.90
14122;DHT22;7139;48.114;11.442;2023-09-19T08:22:53;18.40;99.90
14122;DHT22;7139;48.114;11.442;2023-09-19T08:25:21;18.50;99.90
14122;DHT22;7139;48.114;11.442;2023-09-19T08:27:56;18.70;99.90
14122;DHT22;7139;48.114;11.442;2023-09-19T08:30:25;18.90;99.90
14122;DHT22;7139;48.114;11.442;2023-09-19T08:32:57;19.20;99.90
14122;DHT22;7139;48.114;11.442;2023-09-19T08:35:32;19.40;99.90
14122;DHT22;7139;48.114;11.442;2023-09-19T08:38:02;19.60;99.90
14122;DHT22;7139;48.114;11.442;2023-09-19T08:40:30;19.70;99.90
14122;DHT22;7139;48.114;11.442;2023-09-19T08:42:59;19.90;99.90
14122;DHT22;7139;48.114;11.442;2023-09-19T08:45:26;20.10;99.90
14122;DHT22;7139;48.114;11.442;2023-09-19T08:47:56;20.20;99.90
14122;DHT22;7139;48.114;11.442;2023-09-19T08:50:29;20.30;99.90
14122;DHT22;7139;48.114;11.442;2023-09-19T08:52:58;20.40;99.90
14122;DHT22;7139;48.114;11.442;2023-09-19T08:55:28;20.40;99.90
14122;DHT22;7139;48.114;11.442;2023-09-19T08:57:59;20.30;99.90
14122;DHT22;7139;48.114;11.442;2023-09-19T09:00:28;20.10;99.90
14122;DHT22;7139;48.114;11.442;2023-09-19T09:02:56;20.10;99.90
14122;DHT22;7139;48.114;11.442;2023-09-19T09:05:27;19.90;99.90
14122;DHT22;7139;48.114;11.442;2023-09-19T09:07:54;19.80;99.90
14122;DHT22;7139;48.114;11.442;2023-09-19T09:10:22;19.70;99.90
14122;DHT22;7139;48.114;11.442;2023-09-19T09:12:51;19.60;99.90
14122;DHT22;7139;48.114;11.442;2023-09-19T09:15:19;19.60;99.90
14122;DHT22;7139;48.114;11.442;2023-09-19T09:17:47;19.80;99.90
14122;DHT22;7139;48.114;11.442;2023-09-19T09:20:18;20.00;99.90
14122;DHT22;7139;48.114;11.442;2023-09-19T09:22:52;20.30;99.70
14122;DHT22;7139;48.114;11.442;2023-09-19T09:25:20;20.40;99.40
14122;DHT22;7139;48.114;11.442;2023-09-19T09:27:58;20.60;99.20
14122;DHT22;7139;48.114;11.442;2023-09-19T09:30:33;20.90;99.00
14122;DHT22;7139;48.114;11.442;2023-09-19T09:33:08;21.30;99.40
14122;DHT22;7139;48.114;11.442;2023-09-19T09:35:36;21.50;97.40
14122;DHT22;7139;48.114;11.442;2023-09-19T09:38:04;21.50;97.00
14122;DHT22;7139;48.114;11.442;2023-09-19T09:40:46;21.60;97.50
14122;DHT22;7139;48.114;11.442;2023-09-19T09:43:33;21.90;97.60
14122;DHT22;7139;48.114;11.442;2023-09-19T09:46:21;22.00;96.00
14122;DHT22;7139;48.114;11.442;2023-09-19T09:49:05;22.00;95.50
14122;DHT22;7139;48.114;11.442;2023-09-19T09:51:49;22.10;95.10
14122;DHT22;7139;48.114;11.442;2023-09-19T09:54:25;22.10;95.10
14122;DHT22;7139;48.114;11.442;2023-09-19T09:57:03;22.20;95.00
14122;DHT22;7139;48.114;11.442;2023-09-19T09:59:51;22.10;94.90
14122;DHT22;7139;48.114;11.442;2023-09-19T10:02:20;22.20;95.00
14122;DHT22;7139;48.114;11.442;2023-09-19T10:04:51;22.00;95.10
14122;DHT22;7139;48.114;11.442;2023-09-19T10:07:25;21.90;95.40
14122;DHT22;7139;48.114;11.442;2023-09-19T10:09:57;21.70;95.10
14122;DHT22;7139;48.114;11.442;2023-09-19T10:12:30;21.60;95.40
14122;DHT22;7139;48.114;11.442;2023-09-19T10:15:00;21.50;95.70
14122;DHT22;7139;48.114;11.442;2023-09-19T10:17:29;21.50;96.50
14122;DHT22;7139;48.114;11.442;2023-09-19T10:19:58;21.60;96.20
14122;DHT22;7139;48.114;11.442;2023-09-19T10:22:32;21.60;96.30
14122;DHT22;7139;48.114;11.442;2023-09-19T10:25:01;21.80;96.40
14122;DHT22;7139;48.114;11.442;2023-09-19T10:27:29;21.90;96.60
14122;DHT22;7139;48.114;11.442;2023-09-19T10:30:06;22.00;96.00
14122;DHT22;7139;48.114;11.442;2023-09-19T10:32:35;22.10;95.70
14122;DHT22;7139;48.114;11.442;2023-09-19T10:35:08;22.20;95.80
14122;DHT22;7139;48.114;11.442;2023-09-19T10:37:39;22.30;95.50
14122;DHT22;7139;48.114;11.442;2023-09-19T10:40:08;22.30;95.70
14122;DHT22;7139;48.114;11.442;2023-09-19T10:42:38;22.50;95.90
14122;DHT22;7139;48.114;11.442;2023-09-19T10:45:09;22.50;95.80
14122;DHT22;7139;48.114;11.442;2023-09-19T10:47:38;22.70;95.90
14122;DHT22;7139;48.114;11.442;2023-09-19T10:50:07;22.80;94.90
14122;DHT22;7139;48.114;11.442;2023-09-19T10:52:40;22.60;94.90
14122;DHT22;7139;48.114;11.442;2023-09-19T11:01:55;21.80;94.80
14122;DHT22;7139;48.114;11.442;2023-09-19T11:04:28;21.60;95.40
14122;DHT22;7139;48.114;11.442;2023-09-19T11:07:03;21.40;95.50
14122;DHT22;7139;48.114;11.442;2023-09-19T11:09:48;21.30;95.20
14122;DHT22;7139;48.114;11.442;2023-09-19T11:12:50;21.20;95.90
14122;DHT22;7139;48.114;11.442;2023-09-19T11:18:52;21.10;95.00
14122;DHT22;7139;48.114;11.442;2023-09-19T11:21:51;21.30;94.00
14122;DHT22;7139;48.114;11.442;2023-09-19T11:30:53;21.60;91.90
14122;DHT22;7139;48.114;11.442;2023-09-19T11:33:21;21.50;92.50
14122;DHT22;7139;48.114;11.442;2023-09-19T11:36:26;21.60;92.90
14122;DHT22;7139;48.114;11.442;2023-09-19T11:39:04;22.10;92.30
14122;DHT22;7139;48.114;11.442;2023-09-19T11:41:40;22.20;91.60
14122;DHT22;7139;48.114;11.442;2023-09-19T11:44:32;22.20;91.00
14122;DHT22;7139;48.114;11.442;2023-09-19T11:50:26;22.40;91.40
14122;DHT22;7139;48.114;11.442;2023-09-19T11:52:55;22.50;91.20
14122;DHT22;7139;48.114;11.442;2023-09-19T11:55:23;22.70;91.10
14122;DHT22;7139;48.114;11.442;2023-09-19T11:57:55;22.80;92.20
14122;DHT22;7139;48.114;11.442;2023-09-19T12:00:22;23.20;92.20
14122;DHT22;7139;48.114;11.442;2023-09-19T12:02:51;23.50;91.30
14122;DHT22;7139;48.114;11.442;2023-09-19T12:05:28;23.50;90.90
14122;DHT22;7139;48.114;11.442;2023-09-19T12:11:17;23.60;90.70
14122;DHT22;7139;48.114;11.442;2023-09-19T12:13:47;23.20;90.90
14122;DHT22;7139;48.114;11.442;2023-09-19T12:16:15;22.90;91.30
14122;DHT22;7139;48.114;11.442;2023-09-19T12:18:42;23.00;91.40
14122;DHT22;7139;48.114;11.442;2023-09-19T12:21:34;23.20;91.50
14122;DHT22;7139;48.114;11.442;2023-09-19T12:24:06;23.40;91.80
14122;DHT22;7139;48.114;11.442;2023-09-19T12:26:42;23.60;90.80
14122;DHT22;7139;48.114;11.442;2023-09-19T12:29:15;23.80;90.80
14122;DHT22;7139;48.114;11.442;2023-09-19T12:31:50;23.60;90.50
14122;DHT22;7139;48.114;11.442;2023-09-19T12:34:36;23.60;90.00
14122;DHT22;7139;48.114;11.442;2023-09-19T12:51:00;23.40;91.20
14122;DHT22;7139;48.114;11.442;2023-09-19T12:53:32;23.60;90.30
14122;DHT22;7139;48.114;11.442;2023-09-19T12:56:00;23.60;90.60
14122;DHT22;7139;48.114;11.442;2023-09-19T12:58:26;24.00;91.40
14122;DHT22;7139;48.114;11.442;2023-09-19T13:00:56;24.20;91.00
14122;DHT22;7139;48.114;11.442;2023-09-19T13:03:26;24.30;90.20
14122;DHT22;7139;48.114;11.442;2023-09-19T13:05:55;24.20;88.40
14122;DHT22;7139;48.114;11.442;2023-09-19T13:08:28;24.00;90.00
14122;DHT22;7139;48.114;11.442;2023-09-19T13:11:04;24.00;90.50
14122;DHT22;7139;48.114;11.442;2023-09-19T13:13:36;24.00;90.60
14122;DHT22;7139;48.114;11.442;2023-09-19T13:16:04;24.00;87.00
14122;DHT22;7139;48.114;11.442;2023-09-19T13:18:42;23.90;87.10
14122;DHT22;7139;48.114;11.442;2023-09-19T13:21:11;23.70;85.70
14122;DHT22;7139;48.114;11.442;2023-09-19T13:23:42;23.60;87.50
14122;DHT22;7139;48.114;11.442;2023-09-19T13:26:09;23.60;89.50
14122;DHT22;7139;48.114;11.442;2023-09-19T13:28:37;23.60;88.90
14122;DHT22;7139;48.114;11.442;2023-09-19T13:31:04;23.60;88.30
14122;DHT22;7139;48.114;11.442;2023-09-19T13:33:31;23.70;89.90
14122;DHT22;7139;48.114;11.442;2023-09-19T13:35:58;23.80;88.80
14122;DHT22;7139;48.114;11.442;2023-09-19T13:38:25;23.80;88.20
14122;DHT22;7139;48.114;11.442;2023-09-19T13:40:53;23.80;87.00
14122;DHT22;7139;48.114;11.442;2023-09-19T13:43:19;23.60;88.80
14122;DHT22;7139;48.114;11.442;2023-09-19T13:45:47;23.60;87.00
14122;DHT22;7139;48.114;11.442;2023-09-19T13:48:15;23.60;87.10
14122;DHT22;7139;48.114;11.442;2023-09-19T13:50:45;23.60;86.70
14122;DHT22;7139;48.114;11.442;2023-09-19T13:53:12;23.60;86.20
14122;DHT22;7139;48.114;11.442;2023-09-19T13:55:38;23.50;87.40
14122;DHT22;7139;48.114;11.442;2023-09-19T13:58:07;23.60;88.90
14122;DHT22;7139;48.114;11.442;2023-09-19T14:00:36;23.60;87.90
14122;DHT22;7139;48.114;11.442;2023-09-19T14:03:04;23.60;88.60
14122;DHT22;7139;48.114;11.442;2023-09-19T14:05:31;23.60;88.90
14122;DHT22;7139;48.114;11.442;2023-09-19T14:07:58;23.60;88.00
14122;DHT22;7139;48.114;11.442;2023-09-19T14:10:25;23.50;88.30
14122;DHT22;7139;48.114;11.442;2023-09-19T14:12:53;23.40;89.50
14122;DHT22;7139;48.114;11.442;2023-09-19T14:15:21;23.40;89.30
14122;DHT22;7139;48.114;11.442;2023-09-19T14:17:55;23.40;88.90
14122;DHT22;7139;48.114;11.442;2023-09-19T14:20:22;23.40;88.80
14122;DHT22;7139;48.114;11.442;2023-09-19T14:22:49;23.30;88.10
14122;DHT22;7139;48.114;11.442;2023-09-19T14:25:16;23.20;88.90
14122;DHT22;7139;48.114;11.442;2023-09-19T14:27:43;23.20;89.10
14122;DHT22;7139;48.114;11.442;2023-09-19T14:30:11;23.20;88.80
14122;DHT22;7139;48.114;11.442;2023-09-19T14:32:39;23.20;88.90
14122;DHT22;7139;48.114;11.442;2023-09-19T14:35:07;23.30;89.10
14122;DHT22;7139;48.114;11.442;2023-09-19T14:37:34;23.30;88.50
14122;DHT22;7139;48.114;11.442;2023-09-19T14:40:04;23.30;89.30
14122;DHT22;7139;48.114;11.442;2023-09-19T14:42:34;23.30;89.40
14122;DHT22;7139;48.114;11.442;2023-09-19T14:45:04;23.40;90.60
14122;DHT22;7139;48.114;11.442;2023-09-19T14:47:31;23.40;89.70
14122;DHT22;7139;48.114;11.442;2023-09-19T14:50:00;23.50;89.50
14122;DHT22;7139;48.114;11.442;2023-09-19T14:52:27;23.50;88.80
14122;DHT22;7139;48.114;11.442;2023-09-19T14:54:54;23.50;88.90
14122;DHT22;7139;48.114;11.442;2023-09-19T14:57:21;23.50;89.40
14122;DHT22;7139;48.114;11.442;2023-09-19T14:59:49;23.50;88.00
14122;DHT22;7139;48.114;11.442;2023-09-19T15:02:16;23.60;88.20
14122;DHT22;7139;48.114;11.442;2023-09-19T15:04:43;23.60;87.70
14122;DHT22;7139;48.114;11.442;2023-09-19T15:07:13;23.60;87.70
14122;DHT22;7139;48.114;11.442;2023-09-19T15:09:41;23.80;87.70
14122;DHT22;7139;48.114;11.442;2023-09-19T15:12:09;23.80;87.50
14122;DHT22;7139;48.114;11.442;2023-09-19T15:14:36;23.80;88.20
14122;DHT22;7139;48.114;11.442;2023-09-19T15:17:03;23.70;87.30
14122;DHT22;7139;48.114;11.442;2023-09-19T15:19:31;23.70;88.00
14122;DHT22;7139;48.114;11.442;2023-09-19T15:21:57;23.60;87.60
14122;DHT22;7139;48.114;11.442;2023-09-19T15:24:25;23.50;87.90
14122;DHT22;7139;48.114;11.442;2023-09-19T15:26:52;23.40;87.60
14122;DHT22;7139;48.114;11.442;2023-09-19T15:29:21;23.30;88.00
14122;DHT22;7139;48.114;11.442;2023-09-19T15:31:48;23.40;88.00
14122;DHT22;7139;48.114;11.442;2023-09-19T15:34:15;23.40;87.40
14122;DHT22;7139;48.114;11.442;2023-09-19T15:36:41;23.50;87.60
14122;DHT22;7139;48.114;11.442;2023-09-19T15:39:09;23.60;88.70
14122;DHT22;7139;48.114;11.442;2023-09-19T15:41:38;23.60;88.30
14122;DHT22;7139;48.114;11.442;2023-09-19T15:44:11;23.60;86.40
14122;DHT22;7139;48.114;11.442;2023-09-19T15:46:39;23.40;86.90
14122;DHT22;7139;48.114;11.442;2023-09-19T15:49:06;23.40;87.70
14122;DHT22;7139;48.114;11.442;2023-09-19T15:51:34;23.40;88.40
14122;DHT22;7139;48.114;11.442;2023-09-19T15:54:02;23.40;87.20
14122;DHT22;7139;48.114;11.442;2023-09-19T15:56:33;23.30;87.30
14122;DHT22;7139;48.114;11.442;2023-09-19T15:59:02;23.20;87.30
14122;DHT22;7139;48.114;11.442;2023-09-19T16:01:30;23.10;87.20
14122;DHT22;7139;48.114;11.442;2023-09-19T16:03:57;23.00;86.80
14122;DHT22;7139;48.114;11.442;2023-09-19T16:06:25;23.00;87.30
14122;DHT22;7139;48.114;11.442;2023-09-19T16:08:53;23.00;87.10
14122;DHT22;7139;48.114;11.442;2023-09-19T16:11:21;22.80;87.40
14122;DHT22;7139;48.114;11.442;2023-09-19T16:13:49;22.80;87.90
14122;DHT22;7139;48.114;11.442;2023-09-19T16:16:19;22.70;88.10
14122;DHT22;7139;48.114;11.442;2023-09-19T16:18:48;22.60;89.30
14122;DHT22;7139;48.114;11.442;2023-09-19T16:21:17;22.60;87.70
14122;DHT22;7139;48.114;11.442;2023-09-19T16:23:45;22.30;88.20
14122;DHT22;7139;48.114;11.442;2023-09-19T16:26:13;22.30;88.80
14122;DHT22;7139;48.114;11.442;2023-09-19T16:28:40;22.20;88.90
14122;DHT22;7139;48.114;11.442;2023-09-19T16:31:08;22.10;89.40
14122;DHT22;7139;48.114;11.442;2023-09-19T16:33:37;22.00;90.00
14122;DHT22;7139;48.114;11.442;2023-09-19T16:36:07;22.00;90.20
14122;DHT22;7139;48.114;11.442;2023-09-19T16:38:36;22.00;90.40
14122;DHT22;7139;48.114;11.442;2023-09-19T16:41:03;22.00;90.50
14122;DHT22;7139;48.114;11.442;2023-09-19T16:43:31;21.90;90.70
14122;DHT22;7139;48.114;11.442;2023-09-19T16:46:00;21.90;90.90
14122;DHT22;7139;48.114;11.442;2023-09-19T16:48:28;21.70;91.20
14122;DHT22;7139;48.114;11.442;2023-09-19T16:51:00;21.60;91.10
14122;DHT22;7139;48.114;11.442;2023-09-19T16:53:27;21.50;91.40
14122;DHT22;7139;48.114;11.442;2023-09-19T16:55:54;21.40;91.60
14122;DHT22;7139;48.114;11.442;2023-09-19T16:58:22;21.40;91.90
14122;DHT22;7139;48.114;11.442;2023-09-19T17:00:49;21.30;91.90
14122;DHT22;7139;48.114;11.442;2023-09-19T17:03:16;21.30;92.10
14122;DHT22;7139;48.114;11.442;2023-09-19T17:05:44;21.20;92.20
14122;DHT22;7139;48.114;11.442;2023-09-19T17:08:13;21.10;92.40
14122;DHT22;7139;48.114;11.442;2023-09-19T17:10:40;21.00;92.30
14122;DHT22;7139;48.114;11.442;2023-09-19T17:13:10;21.00;92.80
14122;DHT22;7139;48.114;11.442;2023-09-19T17:15:36;20.90;93.60
14122;DHT22;7139;48.114;11.442;2023-09-19T17:18:05;20.80;93.90
14122;DHT22;7139;48.114;11.442;2023-09-19T17:20:32;20.70;94.10
14122;DHT22;7139;48.114;11.442;2023-09-19T17:22:58;20.50;94.20
14122;DHT22;7139;48.114;11.442;2023-09-19T17:25:27;20.50;94.40
14122;DHT22;7139;48.114;11.442;2023-09-19T17:27:56;20.30;94.70
14122;DHT22;7139;48.114;11.442;2023-09-19T17:30:24;20.20;95.00
14122;DHT22;7139;48.114;11.442;2023-09-19T17:32:52;20.20;95.30
14122;DHT22;7139;48.114;11.442;2023-09-19T17:35:19;20.00;95.30
14122;DHT22;7139;48.114;11.442;2023-09-19T17:37:46;20.00;95.60
14122;DHT22;7139;48.114;11.442;2023-09-19T17:40:13;19.80;95.90
14122;DHT22;7139;48.114;11.442;2023-09-19T17:42:42;19.80;96.00
14122;DHT22;7139;48.114;11.442;2023-09-19T17:45:10;19.70;96.20
14122;DHT22;7139;48.114;11.442;2023-09-19T17:47:40;19.60;96.30
14122;DHT22;7139;48.114;11.442;2023-09-19T17:50:07;19.50;96.40
14122;DHT22;7139;48.114;11.442;2023-09-19T17:52:38;19.40;96.70
14122;DHT22;7139;48.114;11.442;2023-09-19T17:55:06;19.30;97.00
14122;DHT22;7139;48.114;11.442;2023-09-19T17:57:32;19.20;97.10
14122;DHT22;7139;48.114;11.442;2023-09-19T18:00:01;19.10;97.30
14122;DHT22;7139;48.114;11.442;2023-09-19T18:02:31;19.10;97.70
14122;DHT22;7139;48.114;11.442;2023-09-19T18:04:58;19.00;97.80
14122;DHT22;7139;48.114;11.442;2023-09-19T18:07:25;18.90;98.10
14122;DHT22;7139;48.114;11.442;2023-09-19T18:09:52;18.90;98.20
14122;DHT22;7139;48.114;11.442;2023-09-19T18:12:18;18.80;98.60
14122;DHT22;7139;48.114;11.442;2023-09-19T18:21:35;18.60;99.00
14122;DHT22;7139;48.114;11.442;2023-09-19T18:24:07;18.50;99.30
14122;DHT22;7139;48.114;11.442;2023-09-19T18:26:39;18.40;99.50
14122;DHT22;7139;48.114;11.442;2023-09-19T18:29:07;18.40;99.60
14122;DHT22;7139;48.114;11.442;2023-09-19T18:31:35;18.30;99.70
14122;DHT22;7139;48.114;11.442;2023-09-19T18:34:02;18.30;99.90
14122;DHT22;7139;48.114;11.442;2023-09-19T18:36:30;18.20;99.90
14122;DHT22;7139;48.114;11.442;2023-09-19T18:38:57;18.10;99.90
14122;DHT22;7139;48.114;11.442;2023-09-19T18:41:24;18.00;99.90
14122;DHT22;7139;48.114;11.442;2023-09-19T18:43:51;18.00;99.90
14122;DHT22;7139;48.114;11.442;2023-09-19T18:46:17;17.90;99.90
14122;DHT22;7139;48.114;11.442;2023-09-19T18:48:44;17.90;99.90
14122;DHT22;7139;48.114;11.442;2023-09-19T18:51:14;17.80;99.90
14122;DHT22;7139;48.114;11.442;2023-09-19T18:53:44;17.80;99.90
14122;DHT22;7139;48.114;11.442;2023-09-19T18:56:12;17.70;99.90
14122;DHT22;7139;48.114;11.442;2023-09-19T18:58:40;17.70;99.90
14122;DHT22;7139;48.114;11.442;2023-09-19T19:14:36;17.40;99.90
14122;DHT22;7139;48.114;11.442;2023-09-19T19:17:03;17.40;99.90
14122;DHT22;7139;48.114;11.442;2023-09-19T19:19:33;17.30;99.90
14122;DHT22;7139;48.114;11.442;2023-09-19T19:22:00;17.30;99.90
14122;DHT22;7139;48.114;11.442;2023-09-19T19:24:27;17.30;99.90
14122;DHT22;7139;48.114;11.442;2023-09-19T19:26:54;17.20;99.90
14122;DHT22;7139;48.114;11.442;2023-09-19T19:32:46;17.10;99.90
14122;DHT22;7139;48.114;11.442;2023-09-19T19:35:13;17.00;99.90
14122;DHT22;7139;48.114;11.442;2023-09-19T19:37:40;17.00;99.90
14122;DHT22;7139;48.114;11.442;2023-09-19T19:40:07;16.90;99.90
14122;DHT22;7139;48.114;11.442;2023-09-19T19:42:35;16.90;99.90
14122;DHT22;7139;48.114;11.442;2023-09-19T19:45:02;16.80;99.90
14122;DHT22;7139;48.114;11.442;2023-09-19T19:50:53;16.80;99.90
14122;DHT22;7139;48.114;11.442;2023-09-19T19:53:20;16.70;99.90
14122;DHT22;7139;48.114;11.442;2023-09-19T19:55:48;16.70;99.90
14122;DHT22;7139;48.114;11.442;2023-09-19T19:58:16;16.70;99.90
14122;DHT22;7139;48.114;11.442;2023-09-19T20:00:47;16.60;99.90
14122;DHT22;7139;48.114;11.442;2023-09-19T20:03:14;16.50;99.90
14122;DHT22;7139;48.114;11.442;2023-09-19T20:05:40;16.50;99.90
14122;DHT22;7139;48.114;11.442;2023-09-19T20:08:12;16.40;99.90
14122;DHT22;7139;48.114;11.442;2023-09-19T20:10:39;16.40;99.90
14122;DHT22;7139;48.114;11.442;2023-09-19T20:13:06;16.40;99.90
14122;DHT22;7139;48.114;11.442;2023-09-19T20:15:33;16.30;99.90
14122;DHT22;7139;48.114;11.442;2023-09-19T20:18:03;16.30;99.90
14122;DHT22;7139;48.114;11.442;2023-09-19T20:20:33;16.30;99.90
14122;DHT22;7139;48.114;11.442;2023-09-19T20:22:59;16.20;99.90
14122;DHT22;7139;48.114;11.442;2023-09-19T20:28:55;16.20;99.90
14122;DHT22;7139;48.114;11.442;2023-09-19T20:31:25;16.20;99.90
14122;DHT22;7139;48.114;11.442;2023-09-19T20:33:52;16.10;99.90
14122;DHT22;7139;48.114;11.442;2023-09-19T20:36:19;16.00;99.90
14122;DHT22;7139;48.114;11.442;2023-09-19T20:38:46;16.00;99.90
14122;DHT22;7139;48.114;11.442;2023-09-19T20:41:13;16.00;99.90
14122;DHT22;7139;48.114;11.442;2023-09-19T20:43:40;16.00;99.90
14122;DHT22;7139;48.114;11.442;2023-09-19T20:49:30;15.90;99.90
14122;DHT22;7139;48.114;11.442;2023-09-19T20:51:57;15.90;99.90
14122;DHT22;7139;48.114;11.442;2023-09-19T20:54:24;15.80;99.90
14122;DHT22;7139;48.114;11.442;2023-09-19T20:56:51;15.80;99.90
14122;DHT22;7139;48.114;11.442;2023-09-19T20:59:20;15.80;99.90
14122;DHT22;7139;48.114;11.442;2023-09-19T21:01:46;15.70;99.90
14122;DHT22;7139;48.114;11.442;2023-09-19T21:04:13;15.70;99.90
14122;DHT22;7139;48.114;11.442;2023-09-19T21:06:41;15.60;99.90
14122;DHT22;7139;48.114;11.442;2023-09-19T21:09:13;15.60;99.90
14122;DHT22;7139;48.114;11.442;2023-09-19T21:11:41;15.60;99.90
14122;DHT22;7139;48.114;11.442;2023-09-19T21:14:08;15.60;99.90
14122;DHT22;7139;48.114;11.442;2023-09-19T21:16:35;15.50;99.90
14122;DHT22;7139;48.114;11.442;2023-09-19T21:19:02;15.50;99.90
14122;DHT22;7139;48.114;11.442;2023-09-19T21:21:31;15.50;99.90
14122;DHT22;7139;48.114;11.442;2023-09-19T21:24:02;15.50;99.90
14122;DHT22;7139;48.114;11.442;2023-09-19T21:26:28;15.50;99.90
14122;DHT22;7139;48.114;11.442;2023-09-19T21:28:55;15.50;99.90
14122;DHT22;7139;48.114;11.442;2023-09-19T21:31:22;15.50;99.90
14122;DHT22;7139;48.114;11.442;2023-09-19T21:33:49;15.40;99.90
14122;DHT22;7139;48.114;11.442;2023-09-19T21:36:16;15.40;99.90
14122;DHT22;7139;48.114;11.442;2023-09-19T21:38:48;15.40;99.90
14122;DHT22;7139;48.114;11.442;2023-09-19T21:41:18;15.40;99.90
14122;DHT22;7139;48.114;11.442;2023-09-19T21:43:46;15.30;99.90
14122;DHT22;7139;48.114;11.442;2023-09-19T21:46:15;15.30;99.90
14122;DHT22;7139;48.114;11.442;2023-09-19T21:48:41;15.30;99.90
14122;DHT22;7139;48.114;11.442;2023-09-19T21:51:09;15.20;99.90
14122;DHT22;7139;48.114;11.442;2023-09-19T21:53:37;15.20;99.90
14122;DHT22;7139;48.114;11.442;2023-09-19T21:56:04;15.20;99.90
14122;DHT22;7139;48.114;11.442;2023-09-19T21:58:33;15.20;99.90
14122;DHT22;7139;48.114;11.442;2023-09-19T22:01:02;15.10;99.90
14122;DHT22;7139;48.114;11.442;2023-09-19T22:03:33;15.10;99.90
14122;DHT22;7139;48.114;11.442;2023-09-19T22:06:05;15.10;99.90
14122;DHT22;7139;48.114;11.442;2023-09-19T22:08:32;15.10;99.90